Time;durP1;ratioP1;P1;durP2;ratioP2;P2;SDS_P1;SDS_P2;PMS_P1;PMS_P2;Temp;Humidity;BMP_temperature;BMP_pressure;BME280_temperature;BME280_humidity;BME280_pressure;Samples;Min_cycle;Max_cycle;Signal;HPM_P1;HPM_P2
2022/03/25 00:00:19;;;;;;;31.95;10.00;;;;;;;3.59;36.86;100006.97;5073403;28;20074;-56
2022/03/25 00:02:45;;;;;;;27.88;10.18;;;;;;;3.57;36.89;99999.09;5073313;28;20033;-57
2022/03/25 00:05:11;;;;;;;25.85;9.90;;;;;;;3.49;37.08;99993.31;5073128;28;20050;-52
2022/03/25 00:07:37;;;;;;;30.90;10.88;;;;;;;3.53;36.92;100005.47;5073145;28;20032;-56
2022/03/25 00:10:04;;;;;;;28.55;10.27;;;;;;;3.52;37.15;100013.50;5073559;28;20086;-58
2022/03/25 00:12:30;;;;;;;29.13;10.65;;;;;;;3.47;37.02;100002.25;5073195;28;20028;-55
2022/03/25 00:14:55;;;;;;;23.80;10.23;;;;;;;3.31;36.84;99976.53;5072546;28;20032;-56
2022/03/25 00:17:21;;;;;;;25.13;10.52;;;;;;;3.44;36.96;99998.81;5055051;28;20078;-55
2022/03/25 00:19:46;;;;;;;35.47;10.57;;;;;;;3.42;37.13;100005.13;5072828;28;20036;-52
2022/03/25 00:22:12;;;;;;;23.15;10.00;;;;;;;3.38;37.44;100006.22;5072695;28;20085;-53
2022/03/25 00:24:37;;;;;;;26.63;9.60;;;;;;;3.34;37.69;100013.44;5055241;28;20024;-54
2022/03/25 00:27:04;;;;;;;23.55;9.85;;;;;;;3.32;37.74;100003.84;5073176;28;20504;-58
2022/03/25 00:29:29;;;;;;;24.77;9.48;;;;;;;3.29;37.55;100007.53;5072913;28;20359;-56
2022/03/25 00:31:55;;;;;;;25.70;10.55;;;;;;;3.27;37.73;100002.28;5054479;28;20033;-55
2022/03/25 00:34:20;;;;;;;23.02;10.13;;;;;;;3.12;37.50;99968.59;5073082;28;20041;-57
2022/03/25 00:36:46;;;;;;;27.25;10.60;;;;;;;3.18;37.88;99991.28;5072410;28;20490;-55
2022/03/25 00:39:11;;;;;;;23.15;10.07;;;;;;;3.18;37.87;99994.78;5072304;28;20400;-54
2022/03/25 00:41:37;;;;;;;23.85;10.00;;;;;;;3.18;38.04;99997.44;5072913;28;20031;-51
2022/03/25 00:44:07;;;;;;;22.13;9.88;;;;;;;3.19;38.05;99996.50;5073153;28;20025;-56
2022/03/25 00:46:35;;;;;;;25.92;9.77;;;;;;;3.17;37.89;99993.09;5072636;28;20362;-54
2022/03/25 00:49:01;;;;;;;21.63;10.77;;;;;;;3.13;38.05;99996.78;5072708;28;20088;-56
2022/03/25 00:51:28;;;;;;;25.40;9.30;;;;;;;3.13;37.57;99994.13;5072751;28;20032;-58
2022/03/25 00:53:53;;;;;;;25.52;10.10;;;;;;;3.09;38.33;99982.84;5071844;28;20028;-57
2022/03/25 00:56:19;;;;;;;20.63;9.77;;;;;;;3.10;38.28;99995.16;5071982;28;20039;-55
2022/03/25 00:58:44;;;;;;;26.60;9.60;;;;;;;3.05;38.43;99983.06;5071928;28;20386;-54
2022/03/25 01:01:10;;;;;;;23.33;9.52;;;;;;;3.05;38.13;99986.56;5072461;28;20462;-58
2022/03/25 01:03:35;;;;;;;27.10;9.95;;;;;;;3.07;38.48;99987.34;5072639;28;20074;-53
2022/03/25 01:06:01;;;;;;;26.05;11.05;;;;;;;3.01;38.73;99984.97;5072498;28;20142;-57
2022/03/25 01:08:27;;;;;;;23.42;10.45;;;;;;;2.99;38.11;99970.97;5071878;28;20086;-55
2022/03/25 01:10:53;;;;;;;27.02;10.05;;;;;;;3.06;38.43;99982.13;5072200;28;20024;-54
2022/03/25 01:13:19;;;;;;;26.27;9.88;;;;;;;3.05;38.30;99977.78;5072477;28;20432;-58
2022/03/25 01:15:44;;;;;;;27.33;10.43;;;;;;;3.04;38.55;99976.94;5071746;28;20028;-60
2022/03/25 01:18:10;;;;;;;26.55;9.75;;;;;;;2.99;38.21;99977.13;5071498;28;20374;-60
2022/03/25 01:20:36;;;;;;;25.42;10.48;;;;;;;2.99;38.50;99973.63;5054274;28;20029;-57
2022/03/25 01:23:02;;;;;;;24.83;10.32;;;;;;;2.71;38.37;99937.88;5072481;28;20039;-59
2022/03/25 01:25:28;;;;;;;22.63;10.18;;;;;;;2.96;38.91;99977.28;5071725;28;20040;-57
2022/03/25 01:27:54;;;;;;;23.67;10.45;;;;;;;2.90;38.87;99967.00;5071375;28;20028;-54
2022/03/25 01:30:19;;;;;;;22.35;9.82;;;;;;;2.95;38.82;99985.28;5071517;28;20522;-56
2022/03/25 01:32:45;;;;;;;25.60;10.35;;;;;;;2.93;38.80;99972.13;5072041;28;20025;-57
2022/03/25 01:35:11;;;;;;;24.83;10.63;;;;;;;2.92;38.72;99980.13;5070954;28;20063;-57
2022/03/25 01:37:38;;;;;;;27.48;10.43;;;;;;;2.90;38.59;99977.56;5071460;28;20033;-57
2022/03/25 01:40:08;;;;;;;23.70;10.10;;;;;;;2.89;38.83;99985.56;5071098;28;20036;-56
2022/03/25 01:42:39;;;;;;;31.15;10.80;;;;;;;2.93;38.69;100001.22;5071082;28;20036;-55
2022/03/25 01:45:06;;;;;;;26.27;10.05;;;;;;;2.90;38.93;99998.72;5071432;28;20085;-58
2022/03/25 01:47:33;;;;;;;23.60;10.63;;;;;;;2.90;38.67;99997.84;5071073;28;20448;-57
2022/03/25 01:50:00;;;;;;;26.35;9.68;;;;;;;2.77;38.83;99979.91;5071296;28;20048;-55
2022/03/25 01:52:27;;;;;;;26.38;10.45;;;;;;;2.90;38.59;99992.56;5071327;28;20328;-56
2022/03/25 01:54:53;;;;;;;23.92;9.93;;;;;;;2.93;39.04;99998.59;5070985;28;20308;-51
2022/03/25 01:57:24;;;;;;;21.08;10.48;;;;;;;2.73;39.06;99957.16;5070503;28;20033;-53
2022/03/25 01:59:50;;;;;;;23.95;10.65;;;;;;;2.97;38.92;99994.88;5071271;28;20103;-54
2022/03/25 02:02:15;;;;;;;24.83;10.63;;;;;;;2.98;38.93;99983.34;5071041;28;20142;-58
2022/03/25 02:04:41;;;;;;;27.88;10.07;;;;;;;3.11;38.66;99996.00;5071484;28;20094;-59
2022/03/25 02:07:09;;;;;;;19.63;9.32;;;;;;;3.17;38.51;100001.00;5071165;28;20049;-54
2022/03/25 02:09:35;;;;;;;24.20;10.23;;;;;;;3.26;38.38;99997.91;5071275;28;20116;-56
2022/03/25 02:12:01;;;;;;;20.88;9.35;;;;;;;3.34;38.71;100001.97;5071390;28;20056;-57
2022/03/25 02:14:27;;;;;;;21.42;10.75;;;;;;;3.19;37.87;99982.41;5071145;28;20052;-58
2022/03/25 02:16:52;;;;;;;21.25;10.38;;;;;;;3.45;38.12;100015.56;5070854;28;20454;-56
2022/03/25 02:19:18;;;;;;;23.05;10.20;;;;;;;3.46;38.10;100014.66;5071206;28;20067;-52
2022/03/25 02:21:47;;;;;;;19.52;10.75;;;;;;;3.27;38.23;99981.13;5071349;28;20040;-57
2022/03/25 02:24:14;;;;;;;19.55;10.25;;;;;;;3.52;37.67;100019.63;5071003;28;20067;-54
2022/03/25 02:26:40;;;;;;;18.83;10.75;;;;;;;3.54;38.15;100025.72;5071100;28;20021;-55
2022/03/25 02:29:07;;;;;;;18.30;10.27;;;;;;;3.56;38.17;100029.13;5071409;28;20060;-56
2022/03/25 02:31:33;;;;;;;24.70;10.48;;;;;;;3.52;38.36;100019.63;5070941;28;20033;-56
2022/03/25 02:34:04;;;;;;;21.15;10.95;;;;;;;3.58;38.01;100018.50;5070739;28;20067;-56
2022/03/25 02:36:38;;;;;;;23.75;11.80;;;;;;;3.65;38.56;100022.53;5070822;28;20504;-59
2022/03/25 02:39:08;;;;;;;28.25;11.00;;;;;;;3.68;38.21;100022.38;5071152;28;20071;-56
2022/03/25 02:41:34;;;;;;;28.35;12.23;;;;;;;3.64;38.56;100018.19;5071280;28;20033;-58
2022/03/25 02:43:59;;;;;;;29.58;12.05;;;;;;;3.59;38.50;100007.81;5070348;28;20036;-57
2022/03/25 02:46:26;;;;;;;25.05;11.55;;;;;;;3.44;38.25;99996.19;5071129;28;20028;-55
2022/03/25 02:48:52;;;;;;;22.13;11.07;;;;;;;3.62;38.62;100021.81;5071256;28;20136;-59
2022/03/25 02:51:17;;;;;;;26.45;11.38;;;;;;;3.53;38.77;100008.13;5070966;28;20029;-58
2022/03/25 02:53:43;;;;;;;23.25;10.85;;;;;;;3.59;39.10;100018.41;5070520;28;20037;-59
2022/03/25 02:56:08;;;;;;;20.92;10.63;;;;;;;3.60;38.78;100027.22;5073546;28;20533;-55
2022/03/25 02:58:34;;;;;;;24.17;10.77;;;;;;;3.57;38.65;100022.91;5074910;28;20032;-56
2022/03/25 03:00:59;;;;;;;17.70;10.50;;;;;;;3.65;38.21;100034.94;5056802;28;20044;-62
2022/03/25 03:03:25;;;;;;;18.80;9.50;;;;;;;3.70;38.51;100036.41;5074343;28;20029;-55
2022/03/25 03:05:50;;;;;;;21.35;10.60;;;;;;;3.76;38.42;100037.91;5074452;28;20024;-55
2022/03/25 03:08:16;;;;;;;20.48;10.30;;;;;;;3.83;38.31;100041.13;5074758;28;20079;-58
2022/03/25 03:10:43;;;;;;;22.83;10.70;;;;;;;3.88;38.52;100042.63;5074884;28;20034;-53
2022/03/25 03:13:09;;;;;;;22.17;10.60;;;;;;;3.95;38.09;100040.50;5074530;28;20040;-57
2022/03/25 03:15:36;;;;;;;18.88;9.75;;;;;;;4.01;38.35;100049.94;5073986;28;20462;-56
2022/03/25 03:18:02;;;;;;;26.60;10.25;;;;;;;4.04;38.05;100039.19;5074456;28;20386;-58
2022/03/25 03:20:27;;;;;;;24.17;10.95;;;;;;;4.14;37.79;100045.75;5074239;28;20047;-56
2022/03/25 03:22:55;;;;;;;24.70;10.25;;;;;;;4.20;37.78;100044.56;5073954;28;20431;-58
2022/03/25 03:25:20;;;;;;;20.65;11.20;;;;;;;4.25;37.75;100054.94;5073831;28;20525;-55
2022/03/25 03:27:46;;;;;;;25.40;11.25;;;;;;;4.29;37.58;100045.91;5074330;28;20107;-58
2022/03/25 03:30:12;;;;;;;24.50;10.30;;;;;;;4.36;37.63;100055.28;5074038;28;20086;-50
2022/03/25 03:32:38;;;;;;;28.40;11.10;;;;;;;4.34;37.22;100038.59;5056078;28;20383;-54
2022/03/25 03:35:04;;;;;;;30.58;10.27;;;;;;;4.42;37.02;100057.59;5073541;28;20130;-54
2022/03/25 03:37:30;;;;;;;21.15;11.23;;;;;;;4.43;37.75;100046.06;5073566;28;20036;-55
2022/03/25 03:39:56;;;;;;;21.38;10.52;;;;;;;4.47;37.48;100049.44;5073929;28;20066;-57
2022/03/25 03:42:21;;;;;;;25.17;11.43;;;;;;;4.53;37.62;100050.88;5073635;28;20036;-57
2022/03/25 03:44:47;;;;;;;26.90;11.07;;;;;;;4.58;37.92;100056.78;5073594;28;20111;-63
2022/03/25 03:47:13;;;;;;;28.42;10.32;;;;;;;4.63;37.43;100060.09;5074127;28;20043;-56
2022/03/25 03:49:39;;;;;;;21.20;11.23;;;;;;;4.67;37.54;100048.38;5055719;28;20032;-58
2022/03/25 03:52:05;;;;;;;19.48;10.65;;;;;;;4.54;37.52;100020.78;5073824;28;20039;-57
2022/03/25 03:54:32;;;;;;;27.52;11.05;;;;;;;4.72;37.59;100041.03;5073687;28;20036;-56
2022/03/25 03:56:58;;;;;;;28.90;11.75;;;;;;;4.75;37.61;100037.38;5073397;28;20033;-56
2022/03/25 03:59:24;;;;;;;29.45;11.20;;;;;;;4.78;37.60;100042.50;5073764;28;20052;-56
2022/03/25 04:01:50;;;;;;;28.27;12.63;;;;;;;4.80;37.38;100039.75;5073510;28;20525;-54
2022/03/25 04:04:16;;;;;;;31.92;11.40;;;;;;;4.86;37.18;100042.09;5073012;28;20029;-54
2022/03/25 04:06:41;;;;;;;22.45;11.00;;;;;;;4.64;37.75;100000.81;5073191;28;20032;-54
2022/03/25 04:09:07;;;;;;;28.02;11.80;;;;;;;4.95;37.19;100036.28;5073509;28;20122;-59
2022/03/25 04:11:32;;;;;;;29.23;11.85;;;;;;;5.01;36.72;100041.25;5073221;28;20047;-55
2022/03/25 04:13:58;;;;;;;26.02;11.23;;;;;;;5.08;37.06;100051.56;5072952;28;20064;-55
2022/03/25 04:16:23;;;;;;;20.02;10.73;;;;;;;5.07;37.43;100033.94;5073568;28;20040;-56
2022/03/25 04:18:49;;;;;;;26.95;12.13;;;;;;;5.13;36.80;100047.69;5073043;28;20025;-58
2022/03/25 04:21:15;;;;;;;26.13;11.40;;;;;;;5.22;36.45;100042.84;5072948;28;20355;-59
2022/03/25 04:23:41;;;;;;;27.35;11.38;;;;;;;5.26;37.07;100037.25;5073275;28;20024;-59
2022/03/25 04:26:06;;;;;;;22.67;10.77;;;;;;;5.20;36.13;100019.03;5055653;28;20028;-60
2022/03/25 04:28:32;;;;;;;23.25;10.85;;;;;;;5.31;36.53;100026.41;5054551;28;20063;-58
2022/03/25 04:30:58;;;;;;;26.08;11.98;;;;;;;5.42;36.51;100042.56;5072761;28;20033;-56
2022/03/25 04:33:23;;;;;;;28.05;12.00;;;;;;;5.47;36.34;100044.97;5073340;28;20060;-58
2022/03/25 04:35:49;;;;;;;27.38;12.45;;;;;;;5.45;36.31;100031.81;5072787;28;20043;-60
2022/03/25 04:38:15;;;;;;;29.77;12.63;;;;;;;5.45;35.90;100023.84;5072742;28;20024;-61
2022/03/25 04:40:41;;;;;;;27.42;12.23;;;;;;;5.64;35.41;100037.88;5072442;28;20029;-61
2022/03/25 04:43:07;;;;;;;26.60;11.20;;;;;;;5.67;35.77;100033.25;5054961;28;20028;-54
2022/03/25 04:45:33;;;;;;;27.13;11.95;;;;;;;5.70;36.08;100042.84;5072998;28;20103;-59
2022/03/25 04:47:59;;;;;;;27.42;11.85;;;;;;;5.74;35.91;100044.38;5072284;28;20500;-61
2022/03/25 04:50:25;;;;;;;27.50;11.65;;;;;;;5.79;35.91;100039.66;5072227;28;20032;-55
2022/03/25 04:52:50;;;;;;;28.65;12.32;;;;;;;5.84;36.00;100039.38;5072711;28;20039;-58
2022/03/25 04:55:17;;;;;;;33.88;13.15;;;;;;;5.87;35.77;100048.03;5072871;28;20032;-58
2022/03/25 04:57:43;;;;;;;22.65;11.65;;;;;;;5.85;35.79;100033.13;5071836;28;20040;-60
2022/03/25 05:00:10;;;;;;;23.17;12.32;;;;;;;5.95;36.63;100047.59;5072029;28;20041;-58
2022/03/25 05:02:36;;;;;;;26.83;12.50;;;;;;;5.98;35.74;100042.13;5072365;28;20032;-56
2022/03/25 05:05:02;;;;;;;31.15;13.20;;;;;;;6.01;35.59;100038.44;5072505;28;20040;-57
2022/03/25 05:07:29;;;;;;;32.53;13.25;;;;;;;6.12;35.11;100044.00;5072130;28;20035;-60
2022/03/25 05:09:58;;;;;;;22.02;12.88;;;;;;;6.21;35.21;100044.38;5071773;28;20040;-55
2022/03/25 05:12:24;;;;;;;28.33;13.13;;;;;;;6.21;35.30;100047.03;5072267;28;20115;-58
2022/03/25 05:14:50;;;;;;;37.40;13.57;;;;;;;6.28;35.28;100045.75;5072162;28;20075;-55
2022/03/25 05:17:15;;;;;;;22.40;12.48;;;;;;;6.39;34.94;100047.75;5053213;28;20415;-54
2022/03/25 05:19:42;;;;;;;32.47;13.10;;;;;;;6.46;35.02;100043.81;5070769;28;20094;-61
2022/03/25 05:22:08;;;;;;;24.60;13.07;;;;;;;6.50;34.91;100041.78;5071635;28;20060;-56
2022/03/25 05:24:34;;;;;;;27.27;13.02;;;;;;;6.64;34.55;100049.81;5071900;28;20081;-55
2022/03/25 05:26:59;;;;;;;30.92;13.93;;;;;;;6.74;34.84;100052.75;5071692;28;20024;-56
2022/03/25 05:29:26;;;;;;;34.03;13.45;;;;;;;6.84;34.71;100059.22;5071373;28;20028;-58
2022/03/25 05:31:52;;;;;;;25.27;14.10;;;;;;;6.93;34.61;100051.66;5071286;28;20612;-60
2022/03/25 05:34:17;;;;;;;29.50;14.40;;;;;;;7.04;34.40;100057.16;5071693;28;20131;-54
2022/03/25 05:36:44;;;;;;;27.45;13.55;;;;;;;7.16;34.08;100052.84;5071561;28;20463;-61
2022/03/25 05:39:09;;;;;;;35.35;14.40;;;;;;;7.26;33.74;100051.34;5071137;28;20029;-61
2022/03/25 05:41:35;;;;;;;30.25;14.85;;;;;;;7.38;34.16;100054.16;5071576;28;20039;-62
2022/03/25 05:44:01;;;;;;;30.25;14.52;;;;;;;7.44;33.48;100051.97;5071117;28;20028;-60
2022/03/25 05:46:27;;;;;;;31.52;14.90;;;;;;;7.55;33.67;100055.75;5071325;28;20111;-63
2022/03/25 05:48:52;;;;;;;37.65;14.82;;;;;;;7.63;33.49;100066.78;5071200;28;20060;-58
2022/03/25 05:51:18;;;;;;;41.50;15.90;;;;;;;7.68;33.58;100056.69;5071391;28;20040;-55
2022/03/25 05:53:44;;;;;;;43.53;15.93;;;;;;;7.67;33.83;100054.97;5071045;28;20134;-57
2022/03/25 05:56:10;;;;;;;33.80;15.25;;;;;;;7.79;33.17;100063.09;5071412;28;20040;-55
2022/03/25 05:58:37;;;;;;;39.58;15.13;;;;;;;7.87;33.32;100071.47;5070370;28;20020;-59
2022/03/25 06:01:04;;;;;;;31.77;15.27;;;;;;;7.99;32.92;100059.97;5070181;28;20048;-57
2022/03/25 06:03:31;;;;;;;31.63;15.93;;;;;;;8.18;32.77;100064.94;5052334;28;20445;-58
2022/03/25 06:05:56;;;;;;;30.85;15.48;;;;;;;8.35;32.71;100062.97;5052935;28;20071;-64
2022/03/25 06:08:25;;;;;;;31.63;15.70;;;;;;;8.52;32.21;100066.34;5071087;28;20064;-57
2022/03/25 06:10:51;;;;;;;39.55;16.02;;;;;;;8.66;31.79;100063.56;5071164;28;20453;-53
2022/03/25 06:13:17;;;;;;;37.50;16.10;;;;;;;8.84;31.91;100073.94;5070852;28;20037;-59
2022/03/25 06:15:43;;;;;;;40.13;17.98;;;;;;;8.97;31.29;100073.94;5070493;28;20033;-62
2022/03/25 06:18:09;;;;;;;31.90;16.15;;;;;;;9.04;31.33;100065.38;5070674;28;20025;-58
2022/03/25 06:20:34;;;;;;;32.25;16.52;;;;;;;9.12;31.05;100066.66;5071086;28;20051;-56
2022/03/25 06:23:00;;;;;;;43.90;16.92;;;;;;;9.17;30.98;100077.88;5070404;28;20115;-57
2022/03/25 06:25:26;;;;;;;37.53;16.13;;;;;;;9.17;31.14;100073.38;5070579;28;20057;-56
2022/03/25 06:27:57;;;;;;;34.47;17.08;;;;;;;9.20;31.12;100075.00;5071091;28;20036;-55
2022/03/25 06:30:26;;;;;;;45.13;16.55;;;;;;;9.18;31.26;100074.25;5074395;28;20401;-56
2022/03/25 06:32:52;;;;;;;40.53;16.80;;;;;;;9.11;31.03;100070.28;5074385;28;20426;-58
2022/03/25 06:35:18;;;;;;;42.47;17.05;;;;;;;9.08;31.37;100067.84;5073536;28;20120;-55
2022/03/25 06:37:44;;;;;;;43.00;18.45;;;;;;;9.22;30.89;100082.88;5070930;28;20147;-59
2022/03/25 06:40:10;;;;;;;35.78;17.10;;;;;;;9.34;30.83;100074.84;5074162;28;20107;-58
2022/03/25 06:42:37;;;;;;;39.25;16.65;;;;;;;9.55;30.73;100071.59;5069537;28;20115;-59
2022/03/25 06:45:05;;;;;;;37.42;17.23;;;;;;;9.75;30.29;100071.97;5072241;28;20077;-58
2022/03/25 06:47:30;;;;;;;29.60;16.45;;;;;;;9.59;29.98;100030.31;5071431;28;20031;-58
2022/03/25 06:49:56;;;;;;;36.53;17.30;;;;;;;9.76;29.82;100053.13;5072048;28;20714;-56
2022/03/25 06:52:22;;;;;;;33.20;17.48;;;;;;;9.87;29.88;100060.34;5067272;28;20163;-56
2022/03/25 06:54:48;;;;;;;34.50;16.83;;;;;;;9.89;29.69;100066.47;5071885;28;20031;-55
2022/03/25 06:57:14;;;;;;;41.13;17.90;;;;;;;9.89;29.74;100063.78;5050719;28;20029;-56
2022/03/25 06:59:41;;;;;;;35.35;17.83;;;;;;;9.89;30.06;100062.94;5072091;28;20074;-51
2022/03/25 07:02:11;;;;;;;31.73;16.58;;;;;;;9.83;29.65;100063.38;5073466;28;20028;-59
2022/03/25 07:04:38;;;;;;;40.97;16.98;;;;;;;9.93;29.56;100068.91;5072231;28;20111;-58
2022/03/25 07:07:05;;;;;;;41.28;18.08;;;;;;;10.04;29.42;100068.97;5073640;28;20081;-54
2022/03/25 07:09:32;;;;;;;30.55;17.02;;;;;;;10.16;29.40;100069.84;5073639;28;20032;-57
2022/03/25 07:11:59;;;;;;;38.40;16.75;;;;;;;10.23;29.56;100071.09;5073419;28;20032;-58
2022/03/25 07:14:25;;;;;;;43.40;18.20;;;;;;;10.20;29.49;100068.66;5072149;28;20024;-61
2022/03/25 07:16:51;;;;;;;43.67;18.27;;;;;;;10.27;29.88;100074.41;5074092;28;20029;-62
2022/03/25 07:19:17;;;;;;;50.35;18.65;;;;;;;10.34;29.36;100078.31;5073312;28;20039;-63
2022/03/25 07:21:43;;;;;;;40.75;18.52;;;;;;;10.30;29.45;100083.06;5073175;28;20040;-57
2022/03/25 07:24:09;;;;;;;50.65;19.23;;;;;;;10.29;29.60;100085.84;5073289;28;20040;-57
2022/03/25 07:26:35;;;;;;;52.97;19.00;;;;;;;10.24;29.79;100071.97;5073668;28;20050;-59
2022/03/25 07:29:01;;;;;;;53.92;19.63;;;;;;;9.86;29.66;100023.88;5073183;28;20021;-58
2022/03/25 07:31:28;;;;;;;50.22;19.08;;;;;;;10.11;29.81;100072.88;5073742;28;20042;-52
2022/03/25 07:33:57;;;;;;;48.08;19.40;;;;;;;10.17;29.59;100077.78;5073149;28;20430;-57
2022/03/25 07:36:23;;;;;;;53.25;19.15;;;;;;;10.12;29.70;100073.75;5073925;28;20389;-64
2022/03/25 07:38:49;;;;;;;59.55;19.27;;;;;;;10.17;29.65;100074.25;5072894;28;20033;-59
2022/03/25 07:41:14;;;;;;;55.80;20.30;;;;;;;10.18;29.80;100074.13;5072166;28;20086;-58
2022/03/25 07:43:40;;;;;;;50.08;19.58;;;;;;;10.29;29.31;100075.13;5073435;28;20037;-62
2022/03/25 07:46:05;;;;;;;55.25;20.52;;;;;;;10.39;29.57;100078.84;5072965;28;20607;-65
2022/03/25 07:48:31;;;;;;;46.83;20.33;;;;;;;10.46;29.41;100068.53;5072083;28;20058;-61
2022/03/25 07:50:57;;;;;;;56.08;20.92;;;;;;;10.41;29.86;100068.03;5072796;28;20082;-54
2022/03/25 07:53:23;;;;;;;60.30;22.45;;;;;;;10.53;29.67;100074.28;5072125;28;20369;-62
2022/03/25 07:55:50;;;;;;;55.83;19.90;;;;;;;10.78;28.88;100081.28;5071642;28;20039;-61
2022/03/25 07:58:19;;;;;;;53.08;21.30;;;;;;;11.14;28.46;100071.31;5073113;28;20112;-61
2022/03/25 08:00:49;;;;;;;61.88;22.20;;;;;;;11.66;27.83;100064.59;5072807;28;20040;-59
2022/03/25 08:03:16;;;;;;;49.40;21.10;;;;;;;12.26;26.54;100040.00;5072182;28;20462;-57
2022/03/25 08:05:42;;;;;;;56.53;21.55;;;;;;;13.35;25.28;100072.72;5073305;28;20032;-59
2022/03/25 08:08:08;;;;;;;54.40;20.52;;;;;;;14.00;24.66;100059.88;5071905;28;20493;-62
2022/03/25 08:10:35;;;;;;;55.03;21.23;;;;;;;14.78;23.78;100059.84;5072000;28;20028;-58
2022/03/25 08:13:01;;;;;;;57.30;21.00;;;;;;;15.49;22.65;100071.06;5072502;28;20040;-62
2022/03/25 08:15:27;;;;;;;52.67;22.02;;;;;;;16.14;21.85;100069.25;5072977;28;20437;-59
2022/03/25 08:17:58;;;;;;;64.82;23.05;;;;;;;16.78;21.65;100070.97;5072664;28;20031;-57
2022/03/25 08:20:35;;;;;;;59.80;22.52;;;;;;;17.06;20.80;100063.56;5072220;28;20024;-59
2022/03/25 08:23:02;;;;;;;55.92;22.88;;;;;;;17.22;20.50;100056.56;5071868;28;20037;-64
2022/03/25 08:28:16;;;;;;;41.65;22.00;;;;;;;17.20;20.51;100069.41;5033750;28;20086;-59
2022/03/25 08:30:43;;;;;;;63.10;21.17;;;;;;;16.97;20.64;100061.81;5057992;28;20043;-62
2022/03/25 08:33:10;;;;;;;59.33;21.42;;;;;;;16.71;20.84;100054.53;5072253;28;20041;-59
2022/03/25 08:35:37;;;;;;;35.55;20.75;;;;;;;16.67;20.84;100061.28;5072211;28;20091;-64
2022/03/25 08:38:02;;;;;;;43.47;20.63;;;;;;;16.56;20.63;100056.09;5072426;28;20032;-59
2022/03/25 08:40:30;;;;;;;52.28;20.25;;;;;;;16.16;21.06;100021.38;5071879;28;20021;-62
2022/03/25 08:42:56;;;;;;;42.95;19.95;;;;;;;15.99;21.32;100055.44;5072459;28;20029;-59
2022/03/25 08:45:22;;;;;;;38.55;19.20;;;;;;;15.45;22.09;100058.06;5072147;28;20108;-61
2022/03/25 08:47:51;;;;;;;47.63;18.95;;;;;;;15.03;22.57;100054.81;5054097;28;20021;-60
2022/03/25 08:50:18;;;;;;;34.92;19.50;;;;;;;14.43;23.09;100017.34;5071757;28;20040;-62
2022/03/25 08:52:45;;;;;;;42.05;19.70;;;;;;;14.16;23.56;100017.06;5071984;28;20116;-59
2022/03/25 08:55:12;;;;;;;37.33;18.10;;;;;;;14.10;23.62;100044.59;5071863;28;20033;-62
2022/03/25 08:57:39;;;;;;;36.72;18.92;;;;;;;13.93;24.18;100049.66;5071413;28;20074;-57
2022/03/25 09:00:10;;;;;;;34.90;17.27;;;;;;;13.75;24.36;100048.66;5071557;28;20111;-64
2022/03/25 09:02:36;;;;;;;37.13;16.60;;;;;;;13.63;24.40;100056.84;5053862;28;20033;-58
2022/03/25 09:05:01;;;;;;;31.15;16.65;;;;;;;13.41;24.55;100032.81;5072067;28;20033;-66
2022/03/25 09:07:26;;;;;;;31.58;16.90;;;;;;;13.47;24.64;100048.44;5072078;28;20028;-65
2022/03/25 09:09:52;;;;;;;28.90;15.40;;;;;;;13.58;24.58;100042.09;5070887;28;20028;-64
2022/03/25 09:12:17;;;;;;;31.98;15.77;;;;;;;13.74;24.41;100041.56;5071772;28;20466;-63
2022/03/25 09:14:43;;;;;;;32.38;15.88;;;;;;;13.92;24.05;100049.81;5071026;28;20040;-60
2022/03/25 09:17:09;;;;;;;27.17;15.88;;;;;;;14.05;23.96;100041.47;5052847;28;20059;-58
2022/03/25 09:19:35;;;;;;;28.70;15.95;;;;;;;14.06;24.09;100043.16;5053052;28;20487;-62
2022/03/25 09:22:00;;;;;;;27.30;16.45;;;;;;;13.88;23.89;99999.97;5053331;28;20032;-60
2022/03/25 09:24:26;;;;;;;26.95;16.10;;;;;;;14.12;23.96;100037.22;5070312;28;20097;-60
2022/03/25 09:26:51;;;;;;;30.05;16.67;;;;;;;14.18;23.92;100033.94;5071260;28;20036;-54
2022/03/25 09:29:17;;;;;;;31.45;16.13;;;;;;;14.06;23.84;100006.31;5071216;28;20025;-61
2022/03/25 09:31:43;;;;;;;35.75;16.90;;;;;;;14.29;23.57;100040.19;5070863;28;20036;-62
2022/03/25 09:36:56;;;;;;;31.02;16.90;;;;;;;14.31;23.87;100032.81;5067793;28;20561;-57
2022/03/25 09:39:21;;;;;;;35.33;16.70;;;;;;;14.41;23.78;100033.63;5070383;28;20231;-62
2022/03/25 09:41:47;;;;;;;32.08;16.98;;;;;;;14.54;23.78;100033.34;5070886;28;20466;-61
2022/03/25 09:44:16;;;;;;;32.47;17.33;;;;;;;14.87;23.64;100038.41;5070862;28;20060;-62
2022/03/25 09:46:43;;;;;;;34.63;17.70;;;;;;;15.04;23.18;100037.63;5070987;28;20401;-59
2022/03/25 09:49:09;;;;;;;36.95;18.08;;;;;;;15.17;22.97;100033.75;5070543;28;20032;-56
2022/03/25 09:51:36;;;;;;;43.80;18.17;;;;;;;15.31;22.78;100040.47;5070437;28;20024;-64
2022/03/25 09:54:02;;;;;;;39.08;19.27;;;;;;;15.31;22.89;100029.69;5070819;28;20390;-64
2022/03/25 09:56:28;;;;;;;29.65;18.42;;;;;;;15.15;23.06;100038.44;5051903;28;20040;-60
2022/03/25 09:58:53;;;;;;;34.50;18.98;;;;;;;14.85;23.47;100024.22;5052104;28;20112;-62
2022/03/25 10:01:20;;;;;;;36.15;18.58;;;;;;;14.56;23.73;100030.50;5070544;28;20040;-59
2022/03/25 10:03:45;;;;;;;36.22;17.65;;;;;;;14.45;24.21;100036.91;5070245;28;20103;-62
2022/03/25 10:06:12;;;;;;;34.08;17.42;;;;;;;14.33;24.22;100022.75;5070666;28;20060;-62
2022/03/25 10:08:38;;;;;;;38.50;18.52;;;;;;;14.27;24.40;100032.25;5069644;28;20113;-63
2022/03/25 10:11:24;;;;;;;31.45;17.77;;;;;;;14.42;24.40;100034.50;5070717;28;20024;-63
2022/03/25 10:14:18;;;;;;;28.75;17.42;;;;;;;14.42;24.38;100029.94;5064540;28;20105;-63
2022/03/25 10:16:46;;;;;;;30.40;17.02;;;;;;;14.20;24.41;100023.88;5063535;28;20119;-61
2022/03/25 10:19:22;;;;;;;30.52;18.00;;;;;;;14.18;24.80;100028.56;5070217;28;20028;-64
2022/03/25 10:21:59;;;;;;;31.50;18.02;;;;;;;14.08;24.65;100025.03;5070932;28;20060;-60
2022/03/25 10:24:41;;;;;;;29.58;17.70;;;;;;;14.03;24.76;100021.91;5069883;28;20028;-62
2022/03/25 10:27:07;;;;;;;34.78;18.15;;;;;;;13.86;25.02;100018.91;5050147;28;20437;-63
2022/03/25 10:29:36;;;;;;;30.38;19.05;;;;;;;13.84;25.17;100020.91;5065211;28;20029;-61
2022/03/25 10:32:10;;;;;;;30.98;18.25;;;;;;;13.96;25.10;100018.06;5070025;28;20084;-61
2022/03/25 10:34:38;;;;;;;36.65;18.33;;;;;;;14.05;24.87;100006.47;5067077;28;20044;-62
2022/03/25 10:37:06;;;;;;;30.88;18.25;;;;;;;14.21;24.55;99974.41;5069783;28;20037;-63
2022/03/25 10:39:32;;;;;;;33.05;18.70;;;;;;;14.82;24.18;100011.88;5070546;28;20475;-61
2022/03/25 10:42:07;;;;;;;36.42;18.50;;;;;;;15.23;23.72;100002.63;5070101;28;20462;-61
2022/03/25 10:44:42;;;;;;;31.80;18.83;;;;;;;15.50;23.23;100012.56;5069893;28;20032;-62
2022/03/25 10:47:16;;;;;;;28.52;18.20;;;;;;;15.49;23.03;99973.09;5068867;28;20436;-62
2022/03/25 10:49:48;;;;;;;29.20;17.60;;;;;;;15.72;22.97;100005.03;5051120;28;20052;-62
2022/03/25 10:52:30;;;;;;;28.92;17.15;;;;;;;15.29;23.46;100002.03;5069578;28;20044;-64
2022/03/25 10:55:14;;;;;;;30.25;18.02;;;;;;;14.78;24.01;100002.38;5068313;28;20816;-62
2022/03/25 10:57:52;;;;;;;28.25;18.25;;;;;;;14.45;24.71;100002.72;5064033;28;20028;-61
2022/03/25 11:00:18;;;;;;;28.70;17.50;;;;;;;14.13;25.17;99993.13;5069567;28;20028;-61
2022/03/25 11:02:47;;;;;;;33.40;17.95;;;;;;;14.14;25.09;99997.53;5069140;28;20378;-62
2022/03/25 11:05:14;;;;;;;34.65;18.02;;;;;;;14.28;25.09;99990.00;5051560;28;20058;-62
2022/03/25 11:07:43;;;;;;;31.90;17.20;;;;;;;14.47;25.03;99987.28;5069754;28;20113;-65
2022/03/25 11:10:13;;;;;;;28.92;16.42;;;;;;;14.52;24.83;99983.31;5069569;28;20317;-62
2022/03/25 11:12:42;;;;;;;26.98;16.02;;;;;;;14.37;25.27;99993.69;5051227;28;20027;-62
2022/03/25 11:15:13;;;;;;;25.65;17.08;;;;;;;14.27;25.30;99978.38;5069760;28;20051;-62
2022/03/25 11:17:41;;;;;;;27.55;15.98;;;;;;;14.18;25.53;99984.63;5038440;28;20506;-63
2022/03/25 11:20:10;;;;;;;29.83;14.40;;;;;;;14.12;25.46;99979.84;5055724;28;20029;-64